Terminal Aerodrome Forecast
Issued by NWS

Home | Current Version | Previous Version | Text Only | Print | Product List | Glossary On
Versions: 1 2 3 4 5 6 7 8 9 10 11 12 13 14
000
FTUS43 KDDC 131135
TAFGCK
TAF
KGCK 131135Z 1312/1412 32013G20KT P6SM FEW250
     FM131600 35022G32KT P6SM FEW250
     FM132300 35011KT P6SM FEW250=

USA.gov is the U.S. government's official web portal to all federal, state and local government web resources and services.